sensor_id;sensor_type;location;lat;lon;timestamp;P1;durP1;ratioP1;P2;durP2;ratioP2
39674;SDS011;27790;50.840;4.386;2023-05-10T00:00:00;11.43;;;5.90;;
39674;SDS011;27790;50.840;4.386;2023-05-10T00:02:25;17.67;;;7.10;;
39674;SDS011;27790;50.840;4.386;2023-05-10T00:04:51;11.07;;;6.88;;
39674;SDS011;27790;50.840;4.386;2023-05-10T00:07:17;15.88;;;7.13;;
39674;SDS011;27790;50.840;4.386;2023-05-10T00:09:43;15.85;;;6.53;;
39674;SDS011;27790;50.840;4.386;2023-05-10T00:12:09;17.00;;;7.47;;
39674;SDS011;27790;50.840;4.386;2023-05-10T00:14:34;11.70;;;6.10;;
39674;SDS011;27790;50.840;4.386;2023-05-10T00:17:00;20.40;;;7.35;;
39674;SDS011;27790;50.840;4.386;2023-05-10T00:19:26;14.15;;;7.03;;
39674;SDS011;27790;50.840;4.386;2023-05-10T00:21:52;14.40;;;7.05;;
39674;SDS011;27790;50.840;4.386;2023-05-10T00:24:17;14.35;;;6.97;;
39674;SDS011;27790;50.840;4.386;2023-05-10T00:26:43;14.80;;;7.90;;
39674;SDS011;27790;50.840;4.386;2023-05-10T00:29:09;11.52;;;7.88;;
39674;SDS011;27790;50.840;4.386;2023-05-10T00:31:35;12.68;;;7.63;;
39674;SDS011;27790;50.840;4.386;2023-05-10T00:34:00;18.58;;;7.72;;
39674;SDS011;27790;50.840;4.386;2023-05-10T00:36:26;10.15;;;6.47;;
39674;SDS011;27790;50.840;4.386;2023-05-10T00:38:52;14.52;;;7.60;;
39674;SDS011;27790;50.840;4.386;2023-05-10T00:41:18;17.63;;;8.40;;
39674;SDS011;27790;50.840;4.386;2023-05-10T00:43:46;13.75;;;7.47;;
39674;SDS011;27790;50.840;4.386;2023-05-10T00:46:11;13.88;;;7.85;;
39674;SDS011;27790;50.840;4.386;2023-05-10T00:48:38;14.70;;;7.43;;
39674;SDS011;27790;50.840;4.386;2023-05-10T00:51:04;11.82;;;6.93;;
39674;SDS011;27790;50.840;4.386;2023-05-10T00:53:31;16.95;;;7.97;;
39674;SDS011;27790;50.840;4.386;2023-05-10T00:55:57;13.90;;;7.90;;
39674;SDS011;27790;50.840;4.386;2023-05-10T00:58:24;15.18;;;8.10;;
39674;SDS011;27790;50.840;4.386;2023-05-10T01:00:53;17.00;;;8.02;;
39674;SDS011;27790;50.840;4.386;2023-05-10T01:03:21;14.38;;;7.30;;
39674;SDS011;27790;50.840;4.386;2023-05-10T01:05:46;14.77;;;8.02;;
39674;SDS011;27790;50.840;4.386;2023-05-10T01:08:12;14.52;;;8.73;;
39674;SDS011;27790;50.840;4.386;2023-05-10T01:10:38;17.85;;;9.23;;
39674;SDS011;27790;50.840;4.386;2023-05-10T01:13:03;18.88;;;9.43;;
39674;SDS011;27790;50.840;4.386;2023-05-10T01:15:29;16.40;;;9.13;;
39674;SDS011;27790;50.840;4.386;2023-05-10T01:17:55;16.20;;;8.57;;
39674;SDS011;27790;50.840;4.386;2023-05-10T01:20:21;15.82;;;8.90;;
39674;SDS011;27790;50.840;4.386;2023-05-10T01:28:39;16.67;;;10.00;;
39674;SDS011;27790;50.840;4.386;2023-05-10T01:34:06;13.07;;;8.88;;
39674;SDS011;27790;50.840;4.386;2023-05-10T01:36:43;15.13;;;9.20;;
39674;SDS011;27790;50.840;4.386;2023-05-10T01:42:08;18.60;;;9.80;;
39674;SDS011;27790;50.840;4.386;2023-05-10T01:50:01;14.55;;;9.50;;
39674;SDS011;27790;50.840;4.386;2023-05-10T01:52:33;14.85;;;9.55;;
39674;SDS011;27790;50.840;4.386;2023-05-10T01:55:06;11.80;;;8.73;;
39674;SDS011;27790;50.840;4.386;2023-05-10T01:57:37;15.43;;;9.45;;
39674;SDS011;27790;50.840;4.386;2023-05-10T02:00:07;17.60;;;9.73;;
39674;SDS011;27790;50.840;4.386;2023-05-10T02:02:38;17.77;;;9.35;;
39674;SDS011;27790;50.840;4.386;2023-05-10T02:05:07;17.48;;;10.55;;
39674;SDS011;27790;50.840;4.386;2023-05-10T02:07:35;15.88;;;10.10;;
39674;SDS011;27790;50.840;4.386;2023-05-10T02:10:01;20.10;;;9.90;;
39674;SDS011;27790;50.840;4.386;2023-05-10T02:12:29;17.90;;;10.07;;
39674;SDS011;27790;50.840;4.386;2023-05-10T02:15:00;15.65;;;10.23;;
39674;SDS011;27790;50.840;4.386;2023-05-10T02:17:29;23.63;;;11.07;;
39674;SDS011;27790;50.840;4.386;2023-05-10T02:19:57;14.98;;;10.40;;
39674;SDS011;27790;50.840;4.386;2023-05-10T02:22:25;16.02;;;9.85;;
39674;SDS011;27790;50.840;4.386;2023-05-10T02:24:52;15.05;;;10.13;;
39674;SDS011;27790;50.840;4.386;2023-05-10T02:27:20;14.60;;;9.40;;
39674;SDS011;27790;50.840;4.386;2023-05-10T02:29:47;17.95;;;10.35;;
39674;SDS011;27790;50.840;4.386;2023-05-10T02:32:14;19.98;;;10.80;;
39674;SDS011;27790;50.840;4.386;2023-05-10T02:34:41;19.67;;;10.13;;
39674;SDS011;27790;50.840;4.386;2023-05-10T02:37:09;19.30;;;10.85;;
39674;SDS011;27790;50.840;4.386;2023-05-10T02:39:36;17.83;;;10.07;;
39674;SDS011;27790;50.840;4.386;2023-05-10T02:42:03;16.35;;;10.45;;
39674;SDS011;27790;50.840;4.386;2023-05-10T02:44:30;19.42;;;10.23;;
39674;SDS011;27790;50.840;4.386;2023-05-10T02:46:59;14.85;;;10.20;;
39674;SDS011;27790;50.840;4.386;2023-05-10T02:49:24;20.30;;;9.45;;
39674;SDS011;27790;50.840;4.386;2023-05-10T02:51:51;16.08;;;9.07;;
39674;SDS011;27790;50.840;4.386;2023-05-10T02:54:24;19.27;;;10.20;;
39674;SDS011;27790;50.840;4.386;2023-05-10T02:56:56;17.35;;;8.68;;
39674;SDS011;27790;50.840;4.386;2023-05-10T02:59:24;15.45;;;9.32;;
39674;SDS011;27790;50.840;4.386;2023-05-10T03:01:50;13.77;;;9.02;;
39674;SDS011;27790;50.840;4.386;2023-05-10T03:04:15;13.15;;;8.60;;
39674;SDS011;27790;50.840;4.386;2023-05-10T03:06:41;16.80;;;9.70;;
39674;SDS011;27790;50.840;4.386;2023-05-10T03:09:07;18.80;;;9.20;;
39674;SDS011;27790;50.840;4.386;2023-05-10T03:20:09;23.52;;;10.80;;
39674;SDS011;27790;50.840;4.386;2023-05-10T03:22:38;18.63;;;10.40;;
39674;SDS011;27790;50.840;4.386;2023-05-10T03:25:07;14.38;;;8.98;;
39674;SDS011;27790;50.840;4.386;2023-05-10T03:27:36;18.25;;;10.95;;
39674;SDS011;27790;50.840;4.386;2023-05-10T03:30:05;16.48;;;11.05;;
39674;SDS011;27790;50.840;4.386;2023-05-10T03:32:33;20.67;;;10.30;;
39674;SDS011;27790;50.840;4.386;2023-05-10T03:34:59;20.73;;;11.52;;
39674;SDS011;27790;50.840;4.386;2023-05-10T03:37:25;21.35;;;10.65;;
39674;SDS011;27790;50.840;4.386;2023-05-10T03:39:51;17.40;;;11.23;;
39674;SDS011;27790;50.840;4.386;2023-05-10T03:42:16;17.42;;;11.15;;
39674;SDS011;27790;50.840;4.386;2023-05-10T03:44:42;23.60;;;11.75;;
39674;SDS011;27790;50.840;4.386;2023-05-10T03:47:08;19.17;;;11.10;;
39674;SDS011;27790;50.840;4.386;2023-05-10T03:49:34;19.65;;;12.20;;
39674;SDS011;27790;50.840;4.386;2023-05-10T03:51:59;23.70;;;13.25;;
39674;SDS011;27790;50.840;4.386;2023-05-10T03:54:25;24.33;;;13.02;;
39674;SDS011;27790;50.840;4.386;2023-05-10T03:56:51;20.30;;;13.52;;
39674;SDS011;27790;50.840;4.386;2023-05-10T03:59:16;24.85;;;13.00;;
39674;SDS011;27790;50.840;4.386;2023-05-10T04:01:42;22.35;;;11.57;;
39674;SDS011;27790;50.840;4.386;2023-05-10T04:04:07;22.42;;;12.77;;
39674;SDS011;27790;50.840;4.386;2023-05-10T04:06:33;23.17;;;12.80;;
39674;SDS011;27790;50.840;4.386;2023-05-10T04:08:59;19.35;;;12.32;;
39674;SDS011;27790;50.840;4.386;2023-05-10T04:11:26;21.58;;;13.23;;
39674;SDS011;27790;50.840;4.386;2023-05-10T04:13:52;27.67;;;14.20;;
39674;SDS011;27790;50.840;4.386;2023-05-10T04:16:18;21.83;;;12.70;;
39674;SDS011;27790;50.840;4.386;2023-05-10T04:18:43;32.72;;;14.75;;
39674;SDS011;27790;50.840;4.386;2023-05-10T04:21:12;31.88;;;12.80;;
39674;SDS011;27790;50.840;4.386;2023-05-10T04:23:38;24.92;;;12.60;;
39674;SDS011;27790;50.840;4.386;2023-05-10T04:26:04;26.52;;;14.00;;
39674;SDS011;27790;50.840;4.386;2023-05-10T04:28:30;21.45;;;13.88;;
39674;SDS011;27790;50.840;4.386;2023-05-10T04:33:34;27.05;;;13.85;;
39674;SDS011;27790;50.840;4.386;2023-05-10T04:36:00;25.40;;;15.13;;
39674;SDS011;27790;50.840;4.386;2023-05-10T04:38:26;23.45;;;14.55;;
39674;SDS011;27790;50.840;4.386;2023-05-10T04:40:52;23.67;;;14.80;;
39674;SDS011;27790;50.840;4.386;2023-05-10T04:43:18;27.70;;;13.60;;
39674;SDS011;27790;50.840;4.386;2023-05-10T04:45:44;32.13;;;15.68;;
39674;SDS011;27790;50.840;4.386;2023-05-10T04:48:10;26.48;;;14.20;;
39674;SDS011;27790;50.840;4.386;2023-05-10T04:50:36;26.15;;;14.70;;
39674;SDS011;27790;50.840;4.386;2023-05-10T04:53:02;23.45;;;15.80;;
39674;SDS011;27790;50.840;4.386;2023-05-10T04:55:27;25.50;;;14.93;;
39674;SDS011;27790;50.840;4.386;2023-05-10T04:57:53;25.90;;;15.10;;
39674;SDS011;27790;50.840;4.386;2023-05-10T05:00:21;27.83;;;15.90;;
39674;SDS011;27790;50.840;4.386;2023-05-10T05:02:47;24.65;;;15.43;;
39674;SDS011;27790;50.840;4.386;2023-05-10T05:05:13;25.80;;;15.32;;
39674;SDS011;27790;50.840;4.386;2023-05-10T05:07:39;24.02;;;14.45;;
39674;SDS011;27790;50.840;4.386;2023-05-10T05:10:08;26.80;;;15.32;;
39674;SDS011;27790;50.840;4.386;2023-05-10T05:12:34;32.20;;;16.42;;
39674;SDS011;27790;50.840;4.386;2023-05-10T05:15:00;28.73;;;15.88;;
39674;SDS011;27790;50.840;4.386;2023-05-10T05:17:26;24.08;;;15.50;;
39674;SDS011;27790;50.840;4.386;2023-05-10T05:19:51;26.13;;;15.07;;
39674;SDS011;27790;50.840;4.386;2023-05-10T05:22:17;32.30;;;16.15;;
39674;SDS011;27790;50.840;4.386;2023-05-10T05:24:44;28.73;;;15.00;;
39674;SDS011;27790;50.840;4.386;2023-05-10T05:27:10;31.80;;;15.60;;
39674;SDS011;27790;50.840;4.386;2023-05-10T05:29:36;25.92;;;13.52;;
39674;SDS011;27790;50.840;4.386;2023-05-10T05:32:01;19.10;;;11.82;;
39674;SDS011;27790;50.840;4.386;2023-05-10T05:34:27;14.63;;;8.98;;
39674;SDS011;27790;50.840;4.386;2023-05-10T05:36:53;16.65;;;9.48;;
39674;SDS011;27790;50.840;4.386;2023-05-10T05:39:19;15.70;;;9.38;;
39674;SDS011;27790;50.840;4.386;2023-05-10T05:41:44;16.95;;;8.80;;
39674;SDS011;27790;50.840;4.386;2023-05-10T05:44:11;12.60;;;7.88;;
39674;SDS011;27790;50.840;4.386;2023-05-10T05:46:36;16.38;;;9.48;;
39674;SDS011;27790;50.840;4.386;2023-05-10T05:49:02;14.60;;;8.73;;
39674;SDS011;27790;50.840;4.386;2023-05-10T05:51:27;17.02;;;9.40;;
39674;SDS011;27790;50.840;4.386;2023-05-10T05:53:53;16.67;;;9.02;;
39674;SDS011;27790;50.840;4.386;2023-05-10T05:56:19;12.85;;;8.48;;
39674;SDS011;27790;50.840;4.386;2023-05-10T05:58:49;17.20;;;10.57;;
39674;SDS011;27790;50.840;4.386;2023-05-10T06:01:15;19.52;;;11.05;;
39674;SDS011;27790;50.840;4.386;2023-05-10T06:03:41;18.65;;;10.70;;
39674;SDS011;27790;50.840;4.386;2023-05-10T06:06:07;20.27;;;10.70;;
39674;SDS011;27790;50.840;4.386;2023-05-10T06:08:32;21.48;;;11.50;;
39674;SDS011;27790;50.840;4.386;2023-05-10T06:10:59;19.00;;;11.40;;
39674;SDS011;27790;50.840;4.386;2023-05-10T06:13:25;26.50;;;13.02;;
39674;SDS011;27790;50.840;4.386;2023-05-10T06:15:56;23.40;;;11.63;;
39674;SDS011;27790;50.840;4.386;2023-05-10T06:18:26;22.23;;;10.63;;
39674;SDS011;27790;50.840;4.386;2023-05-10T06:20:52;12.68;;;8.02;;
39674;SDS011;27790;50.840;4.386;2023-05-10T06:23:17;17.35;;;8.68;;
39674;SDS011;27790;50.840;4.386;2023-05-10T06:25:43;18.13;;;9.55;;
39674;SDS011;27790;50.840;4.386;2023-05-10T06:28:08;23.60;;;8.38;;
39674;SDS011;27790;50.840;4.386;2023-05-10T06:30:35;16.40;;;8.27;;
39674;SDS011;27790;50.840;4.386;2023-05-10T06:33:01;16.45;;;6.65;;
39674;SDS011;27790;50.840;4.386;2023-05-10T06:35:27;10.20;;;6.20;;
39674;SDS011;27790;50.840;4.386;2023-05-10T06:37:54;12.77;;;6.00;;
39674;SDS011;27790;50.840;4.386;2023-05-10T06:40:20;9.35;;;5.32;;
39674;SDS011;27790;50.840;4.386;2023-05-10T06:42:47;9.10;;;5.15;;
39674;SDS011;27790;50.840;4.386;2023-05-10T06:45:13;7.97;;;4.45;;
39674;SDS011;27790;50.840;4.386;2023-05-10T06:47:40;8.52;;;4.03;;
39674;SDS011;27790;50.840;4.386;2023-05-10T06:50:07;6.63;;;4.80;;
39674;SDS011;27790;50.840;4.386;2023-05-10T06:52:33;7.63;;;4.70;;
39674;SDS011;27790;50.840;4.386;2023-05-10T06:54:59;9.30;;;5.20;;
39674;SDS011;27790;50.840;4.386;2023-05-10T06:57:25;7.88;;;5.15;;
39674;SDS011;27790;50.840;4.386;2023-05-10T06:59:51;9.63;;;5.38;;
39674;SDS011;27790;50.840;4.386;2023-05-10T07:02:17;12.45;;;5.95;;
39674;SDS011;27790;50.840;4.386;2023-05-10T07:04:43;12.85;;;6.65;;
39674;SDS011;27790;50.840;4.386;2023-05-10T07:07:08;12.27;;;7.38;;
39674;SDS011;27790;50.840;4.386;2023-05-10T07:09:34;14.30;;;6.28;;
39674;SDS011;27790;50.840;4.386;2023-05-10T07:11:59;16.33;;;7.28;;
39674;SDS011;27790;50.840;4.386;2023-05-10T07:14:26;13.90;;;8.10;;
39674;SDS011;27790;50.840;4.386;2023-05-10T07:16:52;18.73;;;7.90;;
39674;SDS011;27790;50.840;4.386;2023-05-10T07:19:18;14.35;;;8.23;;
39674;SDS011;27790;50.840;4.386;2023-05-10T07:21:44;18.17;;;8.68;;
39674;SDS011;27790;50.840;4.386;2023-05-10T07:24:10;17.95;;;7.82;;
39674;SDS011;27790;50.840;4.386;2023-05-10T07:26:35;17.35;;;8.57;;
39674;SDS011;27790;50.840;4.386;2023-05-10T07:29:01;17.45;;;8.98;;
39674;SDS011;27790;50.840;4.386;2023-05-10T07:31:27;16.42;;;8.55;;
39674;SDS011;27790;50.840;4.386;2023-05-10T07:33:53;20.95;;;10.07;;
39674;SDS011;27790;50.840;4.386;2023-05-10T07:36:18;16.83;;;8.27;;
39674;SDS011;27790;50.840;4.386;2023-05-10T07:38:44;14.60;;;8.30;;
39674;SDS011;27790;50.840;4.386;2023-05-10T07:41:11;12.95;;;7.65;;
39674;SDS011;27790;50.840;4.386;2023-05-10T07:43:37;13.95;;;7.75;;
39674;SDS011;27790;50.840;4.386;2023-05-10T07:46:03;14.98;;;8.73;;
39674;SDS011;27790;50.840;4.386;2023-05-10T07:48:28;19.00;;;8.95;;
39674;SDS011;27790;50.840;4.386;2023-05-10T07:50:54;13.38;;;7.18;;
39674;SDS011;27790;50.840;4.386;2023-05-10T07:53:19;12.80;;;7.72;;
39674;SDS011;27790;50.840;4.386;2023-05-10T07:55:57;15.70;;;7.75;;
39674;SDS011;27790;50.840;4.386;2023-05-10T07:58:23;14.80;;;7.20;;
39674;SDS011;27790;50.840;4.386;2023-05-10T08:00:49;9.48;;;7.18;;
39674;SDS011;27790;50.840;4.386;2023-05-10T08:03:15;16.33;;;8.48;;
39674;SDS011;27790;50.840;4.386;2023-05-10T08:05:40;13.13;;;6.72;;
39674;SDS011;27790;50.840;4.386;2023-05-10T08:08:06;14.45;;;6.97;;
39674;SDS011;27790;50.840;4.386;2023-05-10T08:10:32;12.85;;;7.38;;
39674;SDS011;27790;50.840;4.386;2023-05-10T08:12:57;12.48;;;6.63;;
39674;SDS011;27790;50.840;4.386;2023-05-10T08:15:23;9.73;;;6.57;;
39674;SDS011;27790;50.840;4.386;2023-05-10T08:17:51;10.20;;;6.70;;
39674;SDS011;27790;50.840;4.386;2023-05-10T08:20:17;9.98;;;6.78;;
39674;SDS011;27790;50.840;4.386;2023-05-10T08:22:44;13.50;;;6.40;;
39674;SDS011;27790;50.840;4.386;2023-05-10T08:25:10;12.18;;;6.18;;
39674;SDS011;27790;50.840;4.386;2023-05-10T08:27:36;7.85;;;6.00;;
39674;SDS011;27790;50.840;4.386;2023-05-10T08:30:02;11.20;;;5.60;;
39674;SDS011;27790;50.840;4.386;2023-05-10T08:32:27;8.32;;;5.20;;
39674;SDS011;27790;50.840;4.386;2023-05-10T08:34:53;10.90;;;6.60;;
39674;SDS011;27790;50.840;4.386;2023-05-10T08:37:23;7.85;;;5.40;;
39674;SDS011;27790;50.840;4.386;2023-05-10T08:39:49;8.63;;;5.32;;
39674;SDS011;27790;50.840;4.386;2023-05-10T08:42:16;9.63;;;5.65;;
39674;SDS011;27790;50.840;4.386;2023-05-10T08:44:45;9.80;;;4.78;;
39674;SDS011;27790;50.840;4.386;2023-05-10T08:47:16;9.43;;;5.63;;
39674;SDS011;27790;50.840;4.386;2023-05-10T08:49:43;10.40;;;5.35;;
39674;SDS011;27790;50.840;4.386;2023-05-10T08:52:12;9.68;;;5.03;;
39674;SDS011;27790;50.840;4.386;2023-05-10T08:54:40;8.48;;;5.90;;
39674;SDS011;27790;50.840;4.386;2023-05-10T08:57:06;8.13;;;5.30;;
39674;SDS011;27790;50.840;4.386;2023-05-10T08:59:32;9.88;;;5.07;;
39674;SDS011;27790;50.840;4.386;2023-05-10T09:01:58;6.90;;;5.35;;
39674;SDS011;27790;50.840;4.386;2023-05-10T09:04:24;6.20;;;4.45;;
39674;SDS011;27790;50.840;4.386;2023-05-10T09:06:50;7.65;;;5.68;;
39674;SDS011;27790;50.840;4.386;2023-05-10T09:09:17;7.78;;;6.00;;
39674;SDS011;27790;50.840;4.386;2023-05-10T09:11:43;8.07;;;5.50;;
39674;SDS011;27790;50.840;4.386;2023-05-10T09:14:09;7.88;;;5.18;;
39674;SDS011;27790;50.840;4.386;2023-05-10T09:16:37;8.00;;;5.82;;
39674;SDS011;27790;50.840;4.386;2023-05-10T09:19:03;7.30;;;5.47;;
39674;SDS011;27790;50.840;4.386;2023-05-10T09:21:28;9.63;;;5.18;;
39674;SDS011;27790;50.840;4.386;2023-05-10T09:23:56;9.18;;;5.35;;
39674;SDS011;27790;50.840;4.386;2023-05-10T09:26:22;7.03;;;5.05;;
39674;SDS011;27790;50.840;4.386;2023-05-10T09:28:51;8.27;;;5.35;;
39674;SDS011;27790;50.840;4.386;2023-05-10T09:31:22;6.15;;;4.40;;
39674;SDS011;27790;50.840;4.386;2023-05-10T09:33:48;5.68;;;4.97;;
39674;SDS011;27790;50.840;4.386;2023-05-10T09:36:15;7.70;;;4.28;;
39674;SDS011;27790;50.840;4.386;2023-05-10T09:38:45;14.05;;;4.50;;
39674;SDS011;27790;50.840;4.386;2023-05-10T09:41:16;7.68;;;3.83;;
39674;SDS011;27790;50.840;4.386;2023-05-10T09:43:55;7.38;;;3.60;;
39674;SDS011;27790;50.840;4.386;2023-05-10T09:46:21;5.63;;;3.58;;
39674;SDS011;27790;50.840;4.386;2023-05-10T09:48:47;4.03;;;3.08;;
39674;SDS011;27790;50.840;4.386;2023-05-10T09:53:46;5.28;;;3.42;;
39674;SDS011;27790;50.840;4.386;2023-05-10T09:56:12;5.75;;;4.05;;
39674;SDS011;27790;50.840;4.386;2023-05-10T09:58:38;5.07;;;4.00;;
39674;SDS011;27790;50.840;4.386;2023-05-10T10:01:04;6.13;;;4.55;;
39674;SDS011;27790;50.840;4.386;2023-05-10T10:03:35;3.92;;;3.42;;
39674;SDS011;27790;50.840;4.386;2023-05-10T10:06:07;7.00;;;4.28;;
39674;SDS011;27790;50.840;4.386;2023-05-10T10:08:33;4.20;;;3.80;;
39674;SDS011;27790;50.840;4.386;2023-05-10T10:11:00;4.68;;;3.40;;
39674;SDS011;27790;50.840;4.386;2023-05-10T10:13:26;5.05;;;4.45;;
39674;SDS011;27790;50.840;4.386;2023-05-10T10:15:52;5.95;;;3.80;;
39674;SDS011;27790;50.840;4.386;2023-05-10T10:18:19;5.10;;;4.13;;
39674;SDS011;27790;50.840;4.386;2023-05-10T10:20:51;4.88;;;4.00;;
39674;SDS011;27790;50.840;4.386;2023-05-10T10:23:19;6.18;;;4.47;;
39674;SDS011;27790;50.840;4.386;2023-05-10T10:25:44;5.13;;;4.60;;
39674;SDS011;27790;50.840;4.386;2023-05-10T10:34:01;6.18;;;3.72;;
39674;SDS011;27790;50.840;4.386;2023-05-10T10:36:31;4.47;;;4.07;;
39674;SDS011;27790;50.840;4.386;2023-05-10T10:39:01;4.68;;;4.28;;
39674;SDS011;27790;50.840;4.386;2023-05-10T10:44:22;7.70;;;5.13;;
39674;SDS011;27790;50.840;4.386;2023-05-10T10:54:50;6.40;;;4.65;;
39674;SDS011;27790;50.840;4.386;2023-05-10T10:57:28;6.35;;;4.35;;
39674;SDS011;27790;50.840;4.386;2023-05-10T11:02:51;6.80;;;4.32;;
39674;SDS011;27790;50.840;4.386;2023-05-10T11:05:25;7.07;;;4.72;;
39674;SDS011;27790;50.840;4.386;2023-05-10T11:11:01;4.30;;;3.58;;
39674;SDS011;27790;50.840;4.386;2023-05-10T11:15:55;6.45;;;4.60;;
39674;SDS011;27790;50.840;4.386;2023-05-10T11:18:26;6.97;;;4.50;;
39674;SDS011;27790;50.840;4.386;2023-05-10T11:21:00;5.00;;;4.28;;
39674;SDS011;27790;50.840;4.386;2023-05-10T11:23:47;7.03;;;4.32;;
39674;SDS011;27790;50.840;4.386;2023-05-10T11:26:13;4.78;;;4.28;;
39674;SDS011;27790;50.840;4.386;2023-05-10T11:28:45;4.40;;;4.00;;
39674;SDS011;27790;50.840;4.386;2023-05-10T11:31:16;13.57;;;4.63;;
39674;SDS011;27790;50.840;4.386;2023-05-10T11:33:46;5.68;;;4.38;;
39674;SDS011;27790;50.840;4.386;2023-05-10T11:36:14;7.90;;;4.53;;
39674;SDS011;27790;50.840;4.386;2023-05-10T11:38:41;5.30;;;4.10;;
39674;SDS011;27790;50.840;4.386;2023-05-10T11:41:10;10.10;;;4.07;;
39674;SDS011;27790;50.840;4.386;2023-05-10T11:43:38;4.03;;;3.63;;
39674;SDS011;27790;50.840;4.386;2023-05-10T11:46:07;8.25;;;4.72;;
39674;SDS011;27790;50.840;4.386;2023-05-10T11:48:35;4.30;;;3.90;;
39674;SDS011;27790;50.840;4.386;2023-05-10T11:51:02;3.80;;;3.50;;
39674;SDS011;27790;50.840;4.386;2023-05-10T11:53:29;4.63;;;3.50;;
39674;SDS011;27790;50.840;4.386;2023-05-10T11:56:02;4.40;;;4.00;;
39674;SDS011;27790;50.840;4.386;2023-05-10T11:58:30;6.22;;;4.07;;
39674;SDS011;27790;50.840;4.386;2023-05-10T12:00:56;5.22;;;4.13;;
39674;SDS011;27790;50.840;4.386;2023-05-10T12:03:22;6.03;;;4.35;;
39674;SDS011;27790;50.840;4.386;2023-05-10T12:05:48;6.60;;;4.75;;
39674;SDS011;27790;50.840;4.386;2023-05-10T12:08:32;5.70;;;5.10;;
39674;SDS011;27790;50.840;4.386;2023-05-10T12:11:05;13.07;;;6.95;;
39674;SDS011;27790;50.840;4.386;2023-05-10T12:13:32;9.35;;;6.45;;
39674;SDS011;27790;50.840;4.386;2023-05-10T12:16:11;5.22;;;4.72;;
39674;SDS011;27790;50.840;4.386;2023-05-10T12:18:38;8.15;;;4.78;;
39674;SDS011;27790;50.840;4.386;2023-05-10T12:21:06;7.72;;;6.03;;
39674;SDS011;27790;50.840;4.386;2023-05-10T12:23:31;6.13;;;5.53;;
39674;SDS011;27790;50.840;4.386;2023-05-10T12:26:08;5.00;;;4.50;;
39674;SDS011;27790;50.840;4.386;2023-05-10T12:28:35;6.53;;;5.13;;
39674;SDS011;27790;50.840;4.386;2023-05-10T12:31:01;7.35;;;5.93;;
39674;SDS011;27790;50.840;4.386;2023-05-10T12:33:27;5.78;;;5.28;;
39674;SDS011;27790;50.840;4.386;2023-05-10T12:36:10;6.80;;;4.97;;
39674;SDS011;27790;50.840;4.386;2023-05-10T12:38:38;8.43;;;4.88;;
39674;SDS011;27790;50.840;4.386;2023-05-10T12:41:26;6.70;;;5.65;;
39674;SDS011;27790;50.840;4.386;2023-05-10T12:43:50;6.35;;;5.30;;
39674;SDS011;27790;50.840;4.386;2023-05-10T12:46:16;6.10;;;5.40;;
39674;SDS011;27790;50.840;4.386;2023-05-10T12:48:43;7.45;;;5.93;;
39674;SDS011;27790;50.840;4.386;2023-05-10T12:51:09;7.40;;;5.68;;
39674;SDS011;27790;50.840;4.386;2023-05-10T12:53:38;7.22;;;5.25;;
39674;SDS011;27790;50.840;4.386;2023-05-10T12:56:04;10.18;;;6.15;;
39674;SDS011;27790;50.840;4.386;2023-05-10T12:58:30;6.97;;;5.07;;
39674;SDS011;27790;50.840;4.386;2023-05-10T13:00:57;5.00;;;4.55;;
39674;SDS011;27790;50.840;4.386;2023-05-10T13:03:24;7.32;;;4.68;;
39674;SDS011;27790;50.840;4.386;2023-05-10T13:05:49;9.52;;;4.75;;
39674;SDS011;27790;50.840;4.386;2023-05-10T13:08:15;5.68;;;3.58;;
39674;SDS011;27790;50.840;4.386;2023-05-10T13:10:40;4.85;;;4.18;;
39674;SDS011;27790;50.840;4.386;2023-05-10T13:13:06;4.63;;;3.70;;
39674;SDS011;27790;50.840;4.386;2023-05-10T13:15:33;3.60;;;3.25;;
39674;SDS011;27790;50.840;4.386;2023-05-10T13:17:59;3.70;;;3.15;;
39674;SDS011;27790;50.840;4.386;2023-05-10T13:20:25;3.28;;;2.88;;
39674;SDS011;27790;50.840;4.386;2023-05-10T13:22:51;4.05;;;3.00;;
39674;SDS011;27790;50.840;4.386;2023-05-10T13:25:16;4.00;;;3.10;;
39674;SDS011;27790;50.840;4.386;2023-05-10T13:27:42;3.92;;;3.55;;
39674;SDS011;27790;50.840;4.386;2023-05-10T13:30:08;4.75;;;3.50;;
39674;SDS011;27790;50.840;4.386;2023-05-10T13:32:34;3.63;;;3.33;;
39674;SDS011;27790;50.840;4.386;2023-05-10T13:35:00;4.75;;;4.25;;
39674;SDS011;27790;50.840;4.386;2023-05-10T13:37:28;5.07;;;4.57;;
39674;SDS011;27790;50.840;4.386;2023-05-10T13:39:54;6.30;;;5.10;;
39674;SDS011;27790;50.840;4.386;2023-05-10T13:42:21;7.22;;;4.60;;
39674;SDS011;27790;50.840;4.386;2023-05-10T13:44:48;5.43;;;4.60;;
39674;SDS011;27790;50.840;4.386;2023-05-10T13:47:13;7.82;;;4.60;;
39674;SDS011;27790;50.840;4.386;2023-05-10T13:49:39;4.88;;;4.38;;
39674;SDS011;27790;50.840;4.386;2023-05-10T13:52:05;7.38;;;4.68;;
39674;SDS011;27790;50.840;4.386;2023-05-10T13:54:34;9.77;;;5.18;;
39674;SDS011;27790;50.840;4.386;2023-05-10T13:57:03;5.72;;;4.57;;
39674;SDS011;27790;50.840;4.386;2023-05-10T13:59:29;5.40;;;4.90;;
39674;SDS011;27790;50.840;4.386;2023-05-10T14:01:56;11.35;;;6.00;;
39674;SDS011;27790;50.840;4.386;2023-05-10T14:04:23;7.28;;;6.00;;
39674;SDS011;27790;50.840;4.386;2023-05-10T14:06:48;10.15;;;5.60;;
39674;SDS011;27790;50.840;4.386;2023-05-10T14:09:14;9.20;;;6.47;;
39674;SDS011;27790;50.840;4.386;2023-05-10T14:11:40;10.13;;;7.15;;
39674;SDS011;27790;50.840;4.386;2023-05-10T14:14:08;10.13;;;8.35;;
39674;SDS011;27790;50.840;4.386;2023-05-10T14:16:34;9.52;;;7.78;;
39674;SDS011;27790;50.840;4.386;2023-05-10T14:18:59;10.43;;;8.02;;
39674;SDS011;27790;50.840;4.386;2023-05-10T14:21:25;12.50;;;9.00;;
39674;SDS011;27790;50.840;4.386;2023-05-10T14:23:51;13.20;;;8.98;;
39674;SDS011;27790;50.840;4.386;2023-05-10T14:26:16;12.98;;;8.38;;
39674;SDS011;27790;50.840;4.386;2023-05-10T14:28:42;12.18;;;8.48;;
39674;SDS011;27790;50.840;4.386;2023-05-10T14:31:07;9.43;;;8.07;;
39674;SDS011;27790;50.840;4.386;2023-05-10T14:33:33;16.65;;;9.18;;
39674;SDS011;27790;50.840;4.386;2023-05-10T14:35:58;12.93;;;8.32;;
39674;SDS011;27790;50.840;4.386;2023-05-10T14:38:24;13.48;;;8.43;;
39674;SDS011;27790;50.840;4.386;2023-05-10T14:40:51;15.70;;;8.88;;
39674;SDS011;27790;50.840;4.386;2023-05-10T14:43:17;9.10;;;8.00;;
39674;SDS011;27790;50.840;4.386;2023-05-10T14:45:42;10.50;;;7.93;;
39674;SDS011;27790;50.840;4.386;2023-05-10T14:48:08;11.52;;;7.95;;
39674;SDS011;27790;50.840;4.386;2023-05-10T14:50:37;12.88;;;7.82;;
39674;SDS011;27790;50.840;4.386;2023-05-10T14:53:03;12.65;;;8.23;;
39674;SDS011;27790;50.840;4.386;2023-05-10T14:55:29;15.27;;;9.60;;
39674;SDS011;27790;50.840;4.386;2023-05-10T14:57:55;15.75;;;9.77;;
39674;SDS011;27790;50.840;4.386;2023-05-10T15:00:21;13.70;;;8.52;;
39674;SDS011;27790;50.840;4.386;2023-05-10T15:02:47;15.25;;;9.23;;
39674;SDS011;27790;50.840;4.386;2023-05-10T15:05:13;10.10;;;6.82;;
39674;SDS011;27790;50.840;4.386;2023-05-10T15:07:39;12.82;;;8.30;;
39674;SDS011;27790;50.840;4.386;2023-05-10T15:10:05;12.90;;;7.68;;
39674;SDS011;27790;50.840;4.386;2023-05-10T15:12:31;13.30;;;7.75;;
39674;SDS011;27790;50.840;4.386;2023-05-10T15:14:56;8.00;;;6.00;;
39674;SDS011;27790;50.840;4.386;2023-05-10T15:17:22;10.20;;;6.15;;
39674;SDS011;27790;50.840;4.386;2023-05-10T15:19:48;9.80;;;4.95;;
39674;SDS011;27790;50.840;4.386;2023-05-10T15:22:14;7.03;;;3.88;;
39674;SDS011;27790;50.840;4.386;2023-05-10T15:24:40;7.00;;;3.90;;
39674;SDS011;27790;50.840;4.386;2023-05-10T15:27:05;8.65;;;4.18;;
39674;SDS011;27790;50.840;4.386;2023-05-10T15:29:31;5.43;;;3.55;;